createdAt,value
2022-12-08T00:01:15.385Z,21.85
2022-12-08T00:03:43.167Z,24.60
2022-12-08T00:06:45.154Z,25.85
2022-12-08T00:09:34.701Z,25.77
2022-12-08T00:12:12.968Z,25.92
2022-12-08T00:14:42.420Z,25.08
2022-12-08T00:17:11.320Z,25.50
2022-12-08T00:19:39.282Z,26.75
2022-12-08T00:22:07.156Z,24.95
2022-12-08T00:24:39.491Z,23.88
2022-12-08T00:27:08.960Z,23.90
2022-12-08T00:29:35.704Z,22.85
2022-12-08T00:34:30.245Z,28.73
2022-12-08T00:36:56.973Z,25.00
2022-12-08T00:42:09.212Z,24.90
2022-12-08T00:44:35.925Z,26.73
2022-12-08T00:49:29.225Z,27.25
2022-12-08T00:54:23.532Z,25.98
2022-12-08T00:56:50.272Z,28.67
2022-12-08T01:01:45.224Z,28.27
2022-12-08T01:04:17.258Z,28.27
2022-12-08T01:06:44.653Z,31.55
2022-12-08T01:09:12.418Z,26.77
2022-12-08T01:11:39.089Z,27.20
2022-12-08T01:14:05.837Z,28.50
2022-12-08T01:19:01.236Z,27.92
2022-12-08T01:21:28.877Z,28.30
2022-12-08T01:23:55.871Z,27.83
2022-12-08T01:26:22.736Z,27.52
2022-12-08T01:28:49.658Z,29.02
2022-12-08T01:31:19.559Z,27.48
2022-12-08T01:33:46.640Z,28.10
2022-12-08T01:36:19.839Z,27.10
2022-12-08T01:38:46.516Z,29.42
2022-12-08T01:41:20.165Z,29.77
2022-12-08T01:43:59.021Z,27.75
2022-12-08T01:46:27.159Z,24.90
2022-12-08T01:49:01.952Z,27.38
2022-12-08T01:51:30.792Z,28.48
2022-12-08T01:53:57.746Z,26.52
2022-12-08T01:56:41.555Z,26.75
2022-12-08T01:59:10.801Z,24.70
2022-12-08T02:01:37.900Z,28.88
2022-12-08T02:04:05.489Z,25.77
2022-12-08T02:06:36.700Z,25.80
2022-12-08T02:09:05.160Z,27.33
2022-12-08T02:11:31.967Z,26.60
2022-12-08T02:16:59.257Z,28.13
2022-12-08T02:19:50.852Z,30.15
2022-12-08T02:22:45.940Z,28.80
2022-12-08T02:25:26.765Z,27.88
2022-12-08T02:28:12.444Z,29.95
2022-12-08T02:30:55.280Z,31.73
2022-12-08T02:33:43.134Z,30.85
2022-12-08T02:36:46.216Z,29.00
2022-12-08T02:39:34.292Z,28.33
2022-12-08T02:42:19.551Z,27.42
2022-12-08T02:44:55.128Z,29.58
2022-12-08T02:47:24.070Z,27.98
2022-12-08T02:49:50.880Z,29.67
2022-12-08T02:52:17.532Z,29.17
2022-12-08T02:54:51.645Z,28.58
2022-12-08T02:57:55.053Z,29.80
2022-12-08T03:00:24.787Z,32.30
2022-12-08T03:03:12.401Z,28.20
2022-12-08T03:05:49.784Z,32.50
2022-12-08T03:11:24.931Z,29.98
2022-12-08T03:13:54.668Z,30.95
2022-12-08T03:16:27.980Z,31.17
2022-12-08T03:19:10.832Z,28.38
2022-12-08T03:21:39.027Z,29.52
2022-12-08T03:24:09.912Z,29.77
2022-12-08T03:26:51.556Z,29.92
2022-12-08T03:29:18.780Z,28.75
2022-12-08T03:31:53.677Z,29.77
2022-12-08T03:34:23.186Z,27.63
2022-12-08T03:36:49.913Z,31.42
2022-12-08T03:41:43.327Z,31.52
2022-12-08T03:46:36.828Z,29.27
2022-12-08T03:49:03.611Z,31.60
2022-12-08T03:51:30.444Z,31.88
2022-12-08T03:53:57.183Z,30.30
2022-12-08T03:58:55.970Z,31.95
2022-12-08T04:01:23.636Z,34.70
2022-12-08T04:03:50.452Z,33.83
2022-12-08T04:08:44.396Z,31.07
2022-12-08T04:13:39.412Z,29.55
2022-12-08T04:16:07.062Z,28.67
2022-12-08T04:18:35.344Z,33.38
2022-12-08T04:21:02.301Z,32.70
2022-12-08T04:23:29.059Z,32.72
2022-12-08T04:28:22.385Z,29.40
2022-12-08T04:33:16.803Z,30.53
2022-12-08T04:35:43.560Z,33.10
2022-12-08T04:40:36.798Z,33.65
2022-12-08T04:43:03.650Z,31.13
2022-12-08T04:45:30.840Z,28.95
2022-12-08T04:48:01.509Z,30.83
2022-12-08T04:50:28.813Z,31.85
2022-12-08T04:52:55.486Z,28.50
2022-12-08T04:57:49.039Z,30.00
2022-12-08T05:00:16.218Z,28.67
2022-12-08T05:02:43.010Z,31.15
2022-12-08T05:05:10.579Z,32.13
2022-12-08T05:07:37.667Z,28.85
2022-12-08T05:10:05.070Z,30.10
2022-12-08T05:12:32.054Z,30.25
2022-12-08T05:17:25.364Z,32.53
2022-12-08T05:22:18.680Z,29.55
2022-12-08T05:24:47.671Z,29.02
2022-12-08T05:27:14.700Z,32.25
2022-12-08T05:32:08.480Z,31.13
2022-12-08T05:34:35.369Z,31.30
2022-12-08T05:37:02.132Z,30.38
2022-12-08T05:41:55.448Z,33.47
2022-12-08T05:46:49.169Z,31.52
2022-12-08T05:49:15.996Z,27.38
2022-12-08T05:54:09.566Z,32.25
2022-12-08T05:56:36.777Z,32.78
2022-12-08T05:59:06.995Z,30.27
2022-12-08T06:01:34.395Z,31.58
2022-12-08T06:04:02.396Z,36.17
2022-12-08T06:06:30.079Z,32.03
2022-12-08T06:08:56.807Z,31.58
2022-12-08T06:16:19.127Z,28.77
2022-12-08T06:18:46.374Z,36.05
2022-12-08T06:21:14.772Z,31.48
2022-12-08T06:23:42.421Z,30.45
2022-12-08T06:26:12.626Z,32.17
2022-12-08T06:28:40.638Z,32.88
2022-12-08T06:31:09.856Z,33.15
2022-12-08T06:33:37.325Z,33.75
2022-12-08T06:36:05.303Z,30.15
2022-12-08T06:38:32.448Z,33.35
2022-12-08T06:40:59.671Z,31.70
2022-12-08T06:43:26.832Z,33.20
2022-12-08T06:45:53.680Z,33.00
2022-12-08T06:48:20.504Z,33.60
2022-12-08T06:53:15.325Z,36.78
2022-12-08T06:56:01.814Z,33.95
2022-12-08T06:58:28.635Z,31.27
2022-12-08T07:03:22.179Z,30.02
2022-12-08T07:08:16.241Z,29.25
2022-12-08T07:10:43.055Z,29.65
2022-12-08T07:13:10.042Z,30.77
2022-12-08T07:15:36.841Z,27.45
2022-12-08T07:18:03.745Z,28.65
2022-12-08T07:20:30.433Z,31.50
2022-12-08T07:25:23.903Z,24.83
2022-12-08T07:30:18.792Z,28.20
2022-12-08T07:32:45.872Z,26.83
2022-12-08T07:35:12.821Z,27.90
2022-12-08T07:37:39.689Z,28.88
2022-12-08T07:40:07.902Z,28.08
2022-12-08T07:42:34.798Z,25.67
2022-12-08T07:45:02.175Z,27.80
2022-12-08T07:47:28.853Z,25.42
2022-12-08T07:52:22.157Z,24.75
2022-12-08T07:54:49.002Z,25.33
2022-12-08T07:59:42.271Z,24.52
2022-12-08T08:02:26.395Z,27.75
2022-12-08T08:04:53.479Z,26.98
2022-12-08T08:07:20.345Z,26.92
2022-12-08T08:15:01.410Z,26.23
2022-12-08T08:17:29.507Z,24.50
2022-12-08T08:19:56.552Z,28.85
2022-12-08T08:24:50.837Z,24.75
2022-12-08T08:27:17.664Z,24.70
2022-12-08T08:29:55.750Z,25.35
2022-12-08T08:32:22.550Z,22.88
2022-12-08T08:37:21.117Z,21.40
2022-12-08T08:40:04.411Z,20.70
2022-12-08T08:42:31.729Z,20.63
2022-12-08T08:47:25.332Z,18.75
2022-12-08T08:49:52.967Z,18.90
2022-12-08T08:54:46.534Z,17.30
2022-12-08T08:59:40.089Z,17.52
2022-12-08T09:07:02.066Z,14.88
2022-12-08T09:09:29.028Z,15.07
2022-12-08T09:14:23.819Z,15.50
2022-12-08T09:16:51.866Z,15.00
2022-12-08T09:19:18.912Z,15.07
2022-12-08T09:21:46.845Z,14.57
2022-12-08T09:26:44.262Z,16.10
2022-12-08T09:29:12.000Z,13.85
2022-12-08T09:31:40.397Z,14.55
2022-12-08T09:34:07.385Z,12.35
2022-12-08T09:36:34.102Z,12.35
2022-12-08T09:41:48.239Z,12.93
2022-12-08T09:44:40.034Z,11.80
2022-12-08T09:47:13.585Z,12.50
2022-12-08T09:49:45.737Z,14.07
2022-12-08T09:52:28.969Z,12.50
2022-12-08T09:55:00.113Z,13.93
2022-12-08T09:57:27.113Z,14.68
2022-12-08T09:59:59.300Z,13.55
2022-12-08T10:02:29.931Z,13.32
2022-12-08T10:04:58.718Z,12.77
2022-12-08T10:07:42.132Z,12.10
2022-12-08T10:10:20.956Z,14.25
2022-12-08T10:12:57.242Z,13.52
2022-12-08T10:15:38.089Z,12.55
2022-12-08T10:18:18.304Z,14.55
2022-12-08T10:20:48.485Z,12.80
2022-12-08T10:23:29.727Z,13.27
2022-12-08T10:26:11.182Z,12.63
2022-12-08T10:28:44.460Z,12.57
2022-12-08T10:31:21.485Z,13.10
2022-12-08T10:34:00.897Z,14.55
2022-12-08T10:36:49.019Z,13.57
2022-12-08T10:39:35.677Z,12.20
2022-12-08T10:42:09.556Z,13.23
2022-12-08T10:45:11.096Z,12.30
2022-12-08T10:47:44.829Z,12.60
2022-12-08T10:50:52.481Z,11.63
2022-12-08T10:53:23.960Z,12.80
2022-12-08T10:55:50.612Z,13.57
2022-12-08T10:58:25.384Z,12.38
2022-12-08T11:00:55.775Z,11.98
2022-12-08T11:03:28.039Z,11.75
2022-12-08T11:06:02.817Z,11.70
2022-12-08T11:08:34.023Z,12.57
2022-12-08T11:13:29.814Z,13.32
2022-12-08T11:15:57.484Z,13.20
2022-12-08T11:18:29.243Z,12.75
2022-12-08T11:21:17.428Z,12.30
2022-12-08T11:23:50.702Z,12.23
2022-12-08T11:26:32.069Z,11.65
2022-12-08T11:28:59.060Z,12.90
2022-12-08T11:33:56.202Z,13.80
2022-12-08T11:39:00.545Z,12.55
2022-12-08T11:41:36.177Z,12.75
2022-12-08T11:44:28.862Z,12.23
2022-12-08T11:47:06.132Z,12.23
2022-12-08T11:49:39.457Z,12.27
2022-12-08T11:52:21.031Z,11.15
2022-12-08T11:55:04.808Z,10.40
2022-12-08T11:57:31.627Z,11.05
2022-12-08T12:00:00.729Z,10.43
2022-12-08T12:02:30.919Z,11.23
2022-12-08T12:05:05.021Z,11.27
2022-12-08T12:07:59.158Z,10.32
2022-12-08T12:10:46.084Z,10.82
2022-12-08T12:13:28.569Z,12.80
2022-12-08T12:16:30.567Z,11.27
2022-12-08T12:19:05.431Z,10.98
2022-12-08T12:21:38.475Z,11.27
2022-12-08T12:24:19.615Z,10.18
2022-12-08T12:27:15.347Z,11.15
2022-12-08T12:29:55.548Z,10.35
2022-12-08T12:32:23.930Z,11.00
2022-12-08T12:34:57.208Z,9.98
2022-12-08T12:37:41.602Z,11.10
2022-12-08T12:40:39.255Z,11.30
2022-12-08T12:43:05.979Z,11.48
2022-12-08T12:45:34.025Z,10.70
2022-12-08T12:48:00.747Z,10.90
2022-12-08T12:50:34.370Z,9.25
2022-12-08T12:53:03.235Z,9.77
2022-12-08T12:55:59.863Z,9.65
2022-12-08T12:58:29.540Z,9.70
2022-12-08T13:01:11.648Z,9.95
2022-12-08T13:03:41.341Z,10.38
2022-12-08T13:06:14.545Z,11.93
2022-12-08T13:08:51.047Z,9.68
2022-12-08T13:11:18.315Z,9.45
2022-12-08T13:14:04.413Z,10.13
2022-12-08T13:16:38.267Z,11.10
2022-12-08T13:19:12.913Z,10.98
2022-12-08T13:21:40.464Z,9.93
2022-12-08T13:24:28.228Z,9.57
2022-12-08T13:27:04.085Z,13.77
2022-12-08T13:29:35.418Z,16.02
2022-12-08T13:32:04.044Z,17.00
2022-12-08T13:34:49.331Z,17.00
2022-12-08T13:37:26.662Z,18.02
2022-12-08T13:40:05.393Z,18.77
2022-12-08T13:42:50.506Z,18.35
2022-12-08T13:46:20.355Z,17.45
2022-12-08T13:49:36.508Z,18.10
2022-12-08T13:57:30.322Z,18.00
2022-12-08T14:00:02.080Z,18.25
2022-12-08T14:02:47.750Z,18.35
2022-12-08T14:05:18.711Z,18.50
2022-12-08T14:07:49.494Z,17.80
2022-12-08T14:10:20.401Z,16.75
2022-12-08T14:12:54.183Z,17.65
2022-12-08T14:15:21.682Z,18.73
2022-12-08T14:17:56.923Z,17.38
2022-12-08T14:20:29.819Z,16.20
2022-12-08T14:22:58.817Z,17.33
2022-12-08T14:25:27.798Z,17.30
2022-12-08T14:28:03.968Z,15.60
2022-12-08T14:30:36.200Z,16.42
2022-12-08T14:33:04.820Z,16.70
2022-12-08T14:35:38.966Z,17.70
2022-12-08T14:38:07.128Z,18.10
2022-12-08T14:40:42.286Z,16.42
2022-12-08T14:43:08.930Z,16.27
2022-12-08T14:45:44.893Z,18.38
2022-12-08T14:48:30.564Z,16.83
2022-12-08T14:51:03.476Z,15.38
2022-12-08T14:53:46.401Z,15.75
2022-12-08T14:56:33.739Z,14.68
2022-12-08T14:59:05.907Z,15.65
2022-12-08T15:01:33.273Z,15.38
2022-12-08T15:04:14.611Z,15.25
2022-12-08T15:07:04.475Z,15.48
2022-12-08T15:09:36.527Z,15.68
2022-12-08T15:12:07.526Z,16.67
2022-12-08T15:14:37.116Z,15.23
2022-12-08T15:17:24.219Z,15.02
2022-12-08T15:19:58.229Z,14.33
2022-12-08T15:22:26.593Z,15.32
2022-12-08T15:24:54.044Z,16.33
2022-12-08T15:27:23.252Z,18.65
2022-12-08T15:29:50.628Z,18.13
2022-12-08T15:32:20.047Z,15.95
2022-12-08T15:34:47.145Z,17.75
2022-12-08T15:37:22.113Z,17.25
2022-12-08T15:39:49.456Z,17.75
2022-12-08T15:42:16.569Z,17.83
2022-12-08T15:44:43.728Z,18.63
2022-12-08T15:47:16.872Z,19.10
2022-12-08T15:49:44.019Z,19.08
2022-12-08T15:52:18.880Z,20.73
2022-12-08T15:54:45.775Z,21.23
2022-12-08T15:57:53.579Z,18.08
2022-12-08T16:04:13.843Z,19.20
2022-12-08T16:09:24.113Z,20.40
2022-12-08T16:12:10.549Z,19.60
2022-12-08T16:17:26.364Z,22.73
2022-12-08T16:19:53.028Z,21.27
2022-12-08T16:25:18.638Z,18.40
2022-12-08T16:28:17.204Z,20.40
2022-12-08T16:30:34.114Z,18.63
2022-12-08T16:33:00.997Z,20.08
2022-12-08T16:35:27.635Z,19.92
2022-12-08T16:40:21.377Z,19.83
2022-12-08T16:42:49.876Z,18.85
2022-12-08T16:45:22.854Z,18.38
2022-12-08T16:48:00.560Z,20.45
2022-12-08T16:50:30.559Z,21.70
2022-12-08T16:52:58.368Z,21.30
2022-12-08T16:55:25.787Z,21.17
2022-12-08T16:57:52.788Z,19.50
2022-12-08T17:00:22.361Z,18.73
2022-12-08T17:02:49.896Z,17.92
2022-12-08T17:05:20.795Z,17.25
2022-12-08T17:07:49.829Z,20.40
2022-12-08T17:10:20.928Z,16.70
2022-12-08T17:12:47.708Z,17.30
2022-12-08T17:17:42.957Z,17.20
2022-12-08T17:22:39.164Z,21.35
2022-12-08T17:27:33.115Z,22.17
2022-12-08T17:32:26.884Z,21.80
2022-12-08T17:34:53.679Z,21.38
2022-12-08T17:39:47.338Z,19.20
2022-12-08T17:42:14.017Z,21.35
2022-12-08T17:44:40.760Z,19.98
2022-12-08T17:49:34.412Z,19.92
2022-12-08T17:52:06.839Z,21.13
2022-12-08T17:54:33.929Z,20.70
2022-12-08T17:57:00.622Z,19.20
2022-12-08T18:01:55.821Z,20.50
2022-12-08T18:04:23.049Z,18.65
2022-12-08T18:06:49.877Z,22.17
2022-12-08T18:09:16.811Z,19.67
2022-12-08T18:11:44.443Z,19.70
2022-12-08T18:14:12.216Z,19.70
2022-12-08T18:16:42.020Z,19.42
2022-12-08T18:19:11.564Z,23.27
2022-12-08T18:21:38.553Z,23.05
2022-12-08T18:24:05.896Z,58.17
2022-12-08T18:26:33.560Z,74.60
2022-12-08T18:29:00.409Z,36.28
2022-12-08T18:31:27.570Z,44.88
2022-12-08T18:33:54.590Z,38.40
2022-12-08T18:36:25.692Z,34.30
2022-12-08T18:38:53.456Z,33.28
2022-12-08T18:41:26.275Z,30.98
2022-12-08T18:43:57.014Z,25.00
2022-12-08T18:46:24.712Z,21.70
2022-12-08T18:48:52.199Z,21.30
2022-12-08T18:51:24.020Z,20.42
2022-12-08T18:53:51.626Z,21.52
2022-12-08T18:56:30.186Z,21.20
2022-12-08T18:59:03.236Z,19.15
2022-12-08T19:01:35.340Z,18.67
2022-12-08T19:04:27.528Z,18.08
2022-12-08T19:06:52.974Z,19.65
2022-12-08T19:09:20.042Z,19.00
2022-12-08T19:11:46.883Z,20.83
2022-12-08T19:14:13.576Z,21.48
2022-12-08T19:19:07.051Z,16.85
2022-12-08T19:21:34.224Z,18.23
2022-12-08T19:24:01.517Z,19.52
2022-12-08T19:26:28.568Z,19.27
2022-12-08T19:28:55.345Z,20.42
2022-12-08T19:31:22.187Z,17.95
2022-12-08T19:33:48.994Z,19.05
2022-12-08T19:39:02.202Z,16.52
2022-12-08T19:41:47.578Z,16.15
2022-12-08T19:44:45.026Z,43.28
2022-12-08T19:47:12.142Z,46.85
2022-12-08T19:49:38.944Z,38.45
2022-12-08T19:54:32.880Z,24.35
2022-12-08T19:56:59.588Z,20.23
2022-12-08T20:01:59.658Z,17.70
2022-12-08T20:04:27.496Z,17.65
2022-12-08T20:06:56.383Z,16.77
2022-12-08T20:09:24.023Z,16.70
2022-12-08T20:11:51.066Z,17.17
2022-12-08T20:14:18.367Z,17.10
2022-12-08T20:16:45.138Z,14.85
2022-12-08T20:19:12.008Z,17.02
2022-12-08T20:21:39.866Z,17.85
2022-12-08T20:24:07.092Z,18.25
2022-12-08T20:26:33.993Z,18.92
2022-12-08T20:29:00.696Z,17.67
2022-12-08T20:36:22.948Z,15.52
2022-12-08T20:38:51.214Z,16.90
2022-12-08T20:41:18.550Z,16.73
2022-12-08T20:43:46.682Z,16.00
2022-12-08T20:46:16.096Z,16.83
2022-12-08T20:48:43.851Z,16.67
2022-12-08T20:51:16.749Z,16.05
2022-12-08T20:53:44.077Z,18.25
2022-12-08T20:56:15.221Z,16.60
2022-12-08T20:58:42.665Z,18.58
2022-12-08T21:01:11.959Z,17.23
2022-12-08T21:03:39.589Z,17.00
2022-12-08T21:06:07.147Z,17.08
2022-12-08T21:08:34.471Z,20.33
2022-12-08T21:11:01.704Z,17.88
2022-12-08T21:13:28.564Z,15.73
2022-12-08T21:15:55.461Z,17.13
2022-12-08T21:18:22.690Z,16.77
2022-12-08T21:20:50.227Z,18.33
2022-12-08T21:23:17.703Z,16.85
2022-12-08T21:25:46.957Z,19.02
2022-12-08T21:28:13.874Z,16.15
2022-12-08T21:30:41.441Z,17.75
2022-12-08T21:33:08.334Z,19.73
2022-12-08T21:35:35.422Z,18.90
2022-12-08T21:38:03.778Z,18.15
2022-12-08T21:40:30.561Z,18.38
2022-12-08T21:42:57.323Z,17.45
2022-12-08T21:47:50.827Z,17.08
2022-12-08T21:50:18.612Z,17.10
2022-12-08T21:52:47.689Z,19.60
2022-12-08T21:55:16.730Z,19.05
2022-12-08T21:57:43.786Z,16.42
2022-12-08T22:00:14.105Z,17.02
2022-12-08T22:02:41.452Z,20.92
2022-12-08T22:05:09.205Z,16.90
2022-12-08T22:07:39.389Z,18.38
2022-12-08T22:10:08.250Z,17.00
2022-12-08T22:12:36.812Z,20.00
2022-12-08T22:15:07.992Z,15.63
2022-12-08T22:17:39.922Z,16.50
2022-12-08T22:20:09.230Z,17.13
2022-12-08T22:22:36.197Z,16.70
2022-12-08T22:27:33.072Z,17.38
2022-12-08T22:29:59.894Z,17.13
2022-12-08T22:34:53.578Z,15.70
2022-12-08T22:37:20.530Z,16.30
2022-12-08T22:39:47.426Z,15.85
2022-12-08T22:42:15.161Z,17.67
2022-12-08T22:44:42.131Z,17.90
2022-12-08T22:47:09.041Z,15.52
2022-12-08T22:49:36.474Z,18.70
2022-12-08T22:52:03.329Z,17.23
2022-12-08T22:54:30.193Z,17.48
2022-12-08T22:56:56.871Z,18.83
2022-12-08T23:01:50.429Z,19.25
2022-12-08T23:04:18.379Z,19.85
2022-12-08T23:06:45.238Z,20.65
2022-12-08T23:11:39.191Z,18.42
2022-12-08T23:14:06.111Z,19.55
2022-12-08T23:16:33.538Z,20.35
2022-12-08T23:19:00.431Z,18.05
2022-12-08T23:21:27.594Z,17.52
2022-12-08T23:23:54.365Z,20.10
2022-12-08T23:28:49.633Z,18.63
2022-12-08T23:31:17.568Z,20.30
2022-12-08T23:33:44.967Z,19.25
2022-12-08T23:36:13.305Z,17.67
2022-12-08T23:38:40.321Z,19.02
2022-12-08T23:41:08.644Z,18.48
2022-12-08T23:43:35.886Z,18.80
2022-12-08T23:46:04.068Z,18.90
2022-12-08T23:48:34.335Z,18.15
2022-12-08T23:51:01.623Z,18.30
2022-12-08T23:53:33.139Z,19.05
2022-12-08T23:56:01.791Z,18.42
2022-12-08T23:58:30.543Z,18.58
